Time;durP1;ratioP1;P1;durP2;ratioP2;P2;SDS_P1;SDS_P2;PMS_P1;PMS_P2;Temp;Humidity;BMP_temperature;BMP_pressure;BME280_temperature;BME280_humidity;BME280_pressure;Samples;Min_cycle;Max_cycle;Signal;HPM_P1;HPM_P2
2023/01/16 00:01:10;;;;;;;6.40;1.15;;;4.50;99.90;;;;;;5078904;28;20066;-61
2023/01/16 00:03:36;;;;;;;5.95;1.35;;;4.50;99.90;;;;;;5078933;28;20029;-62
2023/01/16 00:06:05;;;;;;;4.10;1.17;;;4.50;99.90;;;;;;5061415;28;20047;-63
2023/01/16 00:08:30;;;;;;;2.83;0.90;;;4.40;99.90;;;;;;5078817;28;20036;-63
2023/01/16 00:10:56;;;;;;;3.95;0.95;;;4.40;99.90;;;;;;5078888;28;20050;-63
2023/01/16 00:13:22;;;;;;;6.32;1.20;;;4.40;99.90;;;;;;5078546;28;20120;-64
2023/01/16 00:15:50;;;;;;;5.20;1.17;;;4.40;99.90;;;;;;5061573;28;20035;-62
2023/01/16 00:18:16;;;;;;;3.10;1.00;;;4.40;99.90;;;;;;5078515;28;20067;-63
2023/01/16 00:20:42;;;;;;;10.05;1.52;;;4.40;99.90;;;;;;5061050;28;20116;-63
2023/01/16 00:23:08;;;;;;;5.70;1.20;;;4.30;99.90;;;;;;5078638;28;20108;-63
2023/01/16 00:25:39;;;;;;;5.32;1.20;;;4.30;99.90;;;;;;5061055;28;20068;-63
2023/01/16 00:28:04;;;;;;;4.82;1.13;;;4.30;99.90;;;;;;5078338;28;20032;-63
2023/01/16 00:30:30;;;;;;;4.60;0.93;;;4.30;99.90;;;;;;5078165;28;20119;-63
2023/01/16 00:32:56;;;;;;;6.05;1.10;;;4.30;99.90;;;;;;5078564;28;20043;-63
2023/01/16 00:35:22;;;;;;;4.88;0.90;;;4.30;99.90;;;;;;5044198;28;20376;-63
2023/01/16 00:37:48;;;;;;;8.68;1.40;;;4.30;99.90;;;;;;5061100;28;20311;-63
2023/01/16 00:40:13;;;;;;;4.68;1.08;;;4.30;99.90;;;;;;5060989;28;20040;-63
2023/01/16 00:42:39;;;;;;;6.63;1.23;;;4.30;99.90;;;;;;5078093;28;20485;-64
2023/01/16 00:45:05;;;;;;;7.03;1.05;;;4.30;99.90;;;;;;5060710;28;20028;-63
2023/01/16 00:47:31;;;;;;;4.82;1.17;;;4.20;99.90;;;;;;5077923;28;20495;-63
2023/01/16 00:49:57;;;;;;;5.28;1.23;;;4.20;99.90;;;;;;5043593;28;20067;-64
2023/01/16 00:52:23;;;;;;;3.42;0.80;;;4.20;99.90;;;;;;5078185;28;20430;-64
2023/01/16 00:54:49;;;;;;;6.22;1.13;;;4.30;99.90;;;;;;5060566;28;20039;-64
2023/01/16 00:57:14;;;;;;;5.07;0.70;;;4.30;99.90;;;;;;5077779;28;20024;-63
2023/01/16 00:59:40;;;;;;;7.32;1.42;;;4.30;99.90;;;;;;5077751;28;20028;-63
2023/01/16 01:02:06;;;;;;;2.88;0.82;;;4.20;99.90;;;;;;5077625;28;20028;-63
2023/01/16 01:04:32;;;;;;;2.03;0.82;;;4.30;99.90;;;;;;5060882;28;20077;-63
2023/01/16 01:06:57;;;;;;;3.80;0.93;;;4.20;99.90;;;;;;5060545;28;20031;-64
2023/01/16 01:09:23;;;;;;;3.35;0.73;;;4.20;99.90;;;;;;5060684;28;20040;-64
2023/01/16 01:11:49;;;;;;;5.57;1.23;;;4.20;99.90;;;;;;5043072;28;20071;-63
2023/01/16 01:14:15;;;;;;;4.35;0.85;;;4.20;99.90;;;;;;5077448;28;20029;-63
2023/01/16 01:16:41;;;;;;;3.13;0.50;;;4.20;99.90;;;;;;5060034;28;20033;-63
2023/01/16 01:19:07;;;;;;;2.63;0.90;;;4.20;99.90;;;;;;5077682;28;20029;-64
2023/01/16 01:21:32;;;;;;;3.08;1.08;;;4.20;99.90;;;;;;5077361;28;20041;-64
2023/01/16 01:23:58;;;;;;;5.30;0.90;;;4.20;99.90;;;;;;5077301;28;20300;-65
2023/01/16 01:26:24;;;;;;;3.67;0.40;;;4.20;99.90;;;;;;5059975;28;20036;-64
2023/01/16 01:28:50;;;;;;;4.85;0.65;;;4.20;99.90;;;;;;5077145;28;20024;-63
2023/01/16 01:31:16;;;;;;;2.33;0.70;;;4.20;99.90;;;;;;5077496;28;20089;-63
2023/01/16 01:33:42;;;;;;;1.85;0.68;;;4.20;99.90;;;;;;5077179;28;20040;-63
2023/01/16 01:36:08;;;;;;;4.03;0.82;;;4.20;99.90;;;;;;5077208;28;20033;-63
2023/01/16 01:38:34;;;;;;;3.75;0.80;;;4.20;99.90;;;;;;5077090;28;20040;-64
2023/01/16 01:41:00;;;;;;;2.22;0.70;;;4.20;99.90;;;;;;5077055;28;20061;-63
2023/01/16 01:43:50;;;;;;;4.20;0.80;;;4.20;99.90;;;;;;5059674;28;20036;-63
2023/01/16 01:46:52;;;;;;;3.55;0.73;;;4.20;99.90;;;;;;5077028;28;20110;-64
2023/01/16 01:49:30;;;;;;;5.93;1.00;;;4.30;99.90;;;;;;5074510;28;20281;-63
2023/01/16 01:52:02;;;;;;;4.95;0.85;;;4.20;99.90;;;;;;5077067;28;20086;-64
2023/01/16 01:54:52;;;;;;;2.05;1.00;;;4.30;99.90;;;;;;5077222;28;20028;-64
2023/01/16 01:57:27;;;;;;;5.97;1.10;;;4.30;99.90;;;;;;5059422;28;20025;-63
2023/01/16 02:00:01;;;;;;;3.63;1.02;;;4.30;99.90;;;;;;5077475;28;20119;-64
2023/01/16 02:02:43;;;;;;;4.28;0.82;;;4.30;99.90;;;;;;5076918;28;20040;-64
2023/01/16 02:05:12;;;;;;;4.03;0.80;;;4.40;99.90;;;;;;5059585;28;20040;-64
2023/01/16 02:07:38;;;;;;;4.78;1.10;;;4.50;99.90;;;;;;5076791;28;20028;-64
2023/01/16 02:10:30;;;;;;;7.22;1.40;;;4.50;99.90;;;;;;5076765;28;20097;-63
2023/01/16 02:12:58;;;;;;;3.30;1.23;;;4.50;99.90;;;;;;5031700;28;20054;-63
2023/01/16 02:15:24;;;;;;;5.97;1.40;;;4.50;99.90;;;;;;5059370;28;20380;-62
2023/01/16 02:21:00;;;;;;;3.60;0.90;;;4.50;99.90;;;;;;5077282;28;20285;-63
2023/01/16 02:23:48;;;;;;;5.35;1.10;;;4.50;99.90;;;;;;5032665;28;20056;-62
2023/01/16 02:26:29;;;;;;;4.38;1.20;;;4.60;99.90;;;;;;5063276;28;20028;-63
2023/01/16 02:29:17;;;;;;;5.75;1.30;;;4.80;99.90;;;;;;5080620;28;20028;-63
2023/01/16 02:32:02;;;;;;;5.38;1.33;;;4.90;99.90;;;;;;5080817;28;20040;-63
2023/01/16 02:34:48;;;;;;;2.83;1.20;;;4.80;99.90;;;;;;5080635;28;20025;-63
2023/01/16 02:37:17;;;;;;;7.28;1.30;;;4.90;99.90;;;;;;5080523;28;20295;-63
2023/01/16 02:39:48;;;;;;;4.20;1.10;;;4.90;99.90;;;;;;5063707;28;20048;-63
2023/01/16 02:42:39;;;;;;;4.15;0.80;;;4.90;99.90;;;;;;5080670;28;20037;-63
2023/01/16 02:45:18;;;;;;;3.53;0.90;;;4.90;99.90;;;;;;5080392;28;20063;-63
2023/01/16 02:48:03;;;;;;;3.28;0.90;;;5.00;99.90;;;;;;5062861;28;20032;-63
2023/01/16 02:50:28;;;;;;;7.15;1.20;;;5.00;99.90;;;;;;5059226;28;20041;-63
2023/01/16 02:53:14;;;;;;;7.93;1.10;;;5.00;99.90;;;;;;5060145;28;20025;-63
2023/01/16 02:55:47;;;;;;;4.68;1.10;;;5.00;99.90;;;;;;5060164;28;20112;-63
2023/01/16 02:58:15;;;;;;;1.88;0.82;;;5.10;99.90;;;;;;5060222;28;20033;-63
2023/01/16 03:00:51;;;;;;;4.18;1.10;;;5.00;99.90;;;;;;5060050;28;20025;-63
2023/01/16 03:03:31;;;;;;;3.97;1.10;;;5.10;99.90;;;;;;5042597;28;20060;-63
2023/01/16 03:06:03;;;;;;;4.13;1.38;;;5.10;99.90;;;;;;5059958;28;20108;-63
2023/01/16 03:08:44;;;;;;;9.75;1.23;;;5.10;99.90;;;;;;5060023;28;20288;-63
2023/01/16 03:11:13;;;;;;;7.05;1.30;;;5.20;99.90;;;;;;5059812;28;20082;-63
2023/01/16 03:14:10;;;;;;;3.75;1.10;;;5.30;99.90;;;;;;5059811;28;20360;-63
2023/01/16 03:17:10;;;;;;;10.18;1.33;;;5.40;99.90;;;;;;5059784;28;20029;-63
2023/01/16 03:20:04;;;;;;;6.07;1.15;;;5.40;99.90;;;;;;5059780;28;20039;-63
2023/01/16 03:22:59;;;;;;;5.65;2.00;;;5.50;99.90;;;;;;5059503;28;20029;-62
2023/01/16 03:25:51;;;;;;;7.07;1.42;;;5.50;99.90;;;;;;5059510;28;20090;-62
2023/01/16 03:28:46;;;;;;;6.20;1.40;;;5.60;99.90;;;;;;5059796;28;20029;-62
2023/01/16 03:31:33;;;;;;;3.70;1.23;;;5.60;99.90;;;;;;5058778;28;20033;-62
2023/01/16 03:34:12;;;;;;;7.07;1.42;;;5.60;99.90;;;;;;5058573;28;20037;-62
2023/01/16 03:36:57;;;;;;;7.35;1.40;;;5.70;99.90;;;;;;5059374;28;20047;-62
2023/01/16 03:39:30;;;;;;;7.13;1.20;;;5.70;99.90;;;;;;5059348;28;20052;-62
2023/01/16 03:42:05;;;;;;;5.18;1.35;;;5.80;99.90;;;;;;5059528;28;20116;-62
2023/01/16 03:44:37;;;;;;;7.15;1.23;;;5.90;99.90;;;;;;5059277;28;20032;-62
2023/01/16 03:47:09;;;;;;;4.43;1.42;;;5.90;99.90;;;;;;5059408;28;20399;-62
2023/01/16 03:49:40;;;;;;;6.25;1.30;;;5.80;99.90;;;;;;5062346;28;20049;-62
2023/01/16 03:52:09;;;;;;;7.30;1.27;;;5.80;99.90;;;;;;5079363;28;20024;-63
2023/01/16 03:55:17;;;;;;;4.10;1.20;;;5.90;99.90;;;;;;5061697;28;20036;-62
2023/01/16 03:58:01;;;;;;;5.97;1.52;;;5.90;99.90;;;;;;5079045;28;20044;-62
2023/01/16 04:00:39;;;;;;;9.40;1.52;;;5.80;99.90;;;;;;5061548;28;20033;-62
2023/01/16 04:03:14;;;;;;;4.40;1.00;;;5.90;99.90;;;;;;5079153;28;20040;-62
2023/01/16 04:05:58;;;;;;;5.32;1.45;;;5.90;99.90;;;;;;5062064;28;20047;-62
2023/01/16 04:08:30;;;;;;;4.88;1.15;;;5.90;99.90;;;;;;5078926;28;20020;-62
2023/01/16 04:10:57;;;;;;;4.47;1.50;;;6.00;99.90;;;;;;5078743;28;20033;-62
2023/01/16 04:13:32;;;;;;;8.38;1.23;;;6.00;99.90;;;;;;5078667;28;20028;-62
2023/01/16 04:16:01;;;;;;;5.30;1.10;;;6.00;99.90;;;;;;5079153;28;20052;-62
2023/01/16 04:18:34;;;;;;;7.25;1.30;;;6.00;99.90;;;;;;5061224;28;20048;-62
2023/01/16 04:21:00;;;;;;;4.55;1.10;;;6.10;99.90;;;;;;5078650;28;20374;-62
2023/01/16 04:23:26;;;;;;;4.88;1.08;;;6.10;99.90;;;;;;5061154;28;20115;-62
2023/01/16 04:25:52;;;;;;;5.72;1.10;;;6.20;99.90;;;;;;5060984;28;20045;-62
2023/01/16 04:28:18;;;;;;;7.10;1.13;;;6.10;99.90;;;;;;5061052;28;20400;-62
2023/01/16 04:30:44;;;;;;;11.90;1.02;;;6.20;99.90;;;;;;5078749;28;20036;-62
2023/01/16 04:33:09;;;;;;;7.05;1.27;;;6.10;99.90;;;;;;5078273;28;20040;-62
2023/01/16 04:35:35;;;;;;;6.80;1.05;;;6.20;99.90;;;;;;5078269;28;20033;-62
2023/01/16 04:38:01;;;;;;;3.78;0.90;;;6.20;99.90;;;;;;5078367;28;20040;-62
2023/01/16 04:40:28;;;;;;;7.68;1.23;;;6.10;99.90;;;;;;5078225;28;20028;-62
2023/01/16 04:42:57;;;;;;;5.40;1.10;;;6.20;99.90;;;;;;5077997;28;20048;-62
2023/01/16 04:45:23;;;;;;;5.57;0.95;;;6.10;99.90;;;;;;5078116;28;20108;-61
2023/01/16 04:47:50;;;;;;;7.88;1.45;;;6.10;99.90;;;;;;5077899;28;20060;-61
2023/01/16 04:50:17;;;;;;;5.18;1.10;;;6.10;99.90;;;;;;5077682;28;20136;-62
2023/01/16 04:52:43;;;;;;;5.95;0.80;;;6.10;99.90;;;;;;5077882;28;20020;-61
2023/01/16 04:55:10;;;;;;;7.50;1.13;;;6.20;99.90;;;;;;5077808;28;20269;-61
2023/01/16 04:57:36;;;;;;;4.40;1.00;;;6.10;99.90;;;;;;5077680;28;20406;-61
2023/01/16 05:00:04;;;;;;;5.97;0.90;;;6.20;99.90;;;;;;5077701;28;20102;-61
2023/01/16 05:02:30;;;;;;;4.43;0.90;;;6.10;99.90;;;;;;5077624;28;20063;-61
2023/01/16 05:04:56;;;;;;;6.32;1.10;;;6.10;99.90;;;;;;5060307;28;20044;-61
2023/01/16 05:07:22;;;;;;;5.95;1.20;;;6.10;99.90;;;;;;5077623;28;20350;-61
2023/01/16 05:09:48;;;;;;;5.30;0.90;;;6.10;99.90;;;;;;5077420;28;20068;-61
2023/01/16 05:12:13;;;;;;;3.97;1.00;;;6.30;99.90;;;;;;5060442;28;20035;-61
2023/01/16 05:14:39;;;;;;;6.78;1.20;;;6.20;99.90;;;;;;5078031;28;20315;-61
2023/01/16 05:17:05;;;;;;;4.55;1.20;;;6.10;99.90;;;;;;5077364;28;20085;-61
2023/01/16 05:19:31;;;;;;;4.68;0.75;;;6.10;99.90;;;;;;5077988;28;20036;-61
2023/01/16 05:21:56;;;;;;;4.68;0.82;;;6.10;99.90;;;;;;5077499;28;20032;-61
2023/01/16 05:24:22;;;;;;;5.32;1.00;;;6.10;99.90;;;;;;5077333;28;20042;-61
2023/01/16 05:26:48;;;;;;;4.10;0.80;;;6.10;99.90;;;;;;5077212;28;20039;-61
2023/01/16 05:29:14;;;;;;;7.53;1.23;;;6.10;99.90;;;;;;5077121;28;20098;-61
2023/01/16 05:31:40;;;;;;;5.28;1.10;;;6.10;99.90;;;;;;5077156;28;20395;-60
2023/01/16 05:34:05;;;;;;;8.35;0.88;;;6.10;99.90;;;;;;5077388;28;20071;-61
2023/01/16 05:36:31;;;;;;;8.52;1.15;;;6.00;99.90;;;;;;5059752;28;20047;-63
2023/01/16 05:38:57;;;;;;;9.98;1.17;;;6.00;99.90;;;;;;5077071;28;20028;-60
2023/01/16 05:41:23;;;;;;;4.57;0.90;;;6.00;99.90;;;;;;5077067;28;20043;-60
2023/01/16 05:43:48;;;;;;;6.50;1.48;;;5.90;99.90;;;;;;5059527;28;20426;-60
2023/01/16 05:46:14;;;;;;;8.85;1.33;;;5.90;99.90;;;;;;5043085;28;20070;-60
2023/01/16 05:48:40;;;;;;;7.70;1.08;;;5.90;99.90;;;;;;5059706;28;20059;-60
2023/01/16 05:51:06;;;;;;;3.08;1.08;;;5.90;99.90;;;;;;5076807;28;20379;-60
2023/01/16 05:53:32;;;;;;;4.15;0.90;;;5.90;99.90;;;;;;5076813;28;20024;-60
2023/01/16 05:55:58;;;;;;;6.57;0.85;;;6.00;99.90;;;;;;5076720;28;20063;-60
2023/01/16 05:58:24;;;;;;;7.22;0.82;;;5.90;99.90;;;;;;5059352;28;20029;-60
2023/01/16 06:00:50;;;;;;;5.63;0.82;;;5.90;99.90;;;;;;5077005;28;20051;-60
2023/01/16 06:03:17;;;;;;;7.68;1.17;;;5.90;99.90;;;;;;5076737;28;20157;-60
2023/01/16 06:05:43;;;;;;;5.68;0.90;;;5.90;99.90;;;;;;5077243;28;20036;-60
2023/01/16 06:08:09;;;;;;;4.88;0.88;;;5.90;99.90;;;;;;5059439;28;20033;-60
2023/01/16 06:10:35;;;;;;;3.38;0.90;;;5.90;99.90;;;;;;5077186;28;20364;-59
2023/01/16 06:13:02;;;;;;;4.57;1.08;;;5.90;99.90;;;;;;5076476;28;20070;-60
2023/01/16 06:15:28;;;;;;;4.85;1.00;;;5.90;99.90;;;;;;5076559;28;20029;-60
2023/01/16 06:17:55;;;;;;;6.25;0.93;;;5.90;99.90;;;;;;5076543;28;20039;-61
2023/01/16 06:20:20;;;;;;;6.88;1.17;;;6.00;99.90;;;;;;5076571;28;20040;-62
2023/01/16 06:22:46;;;;;;;3.67;0.80;;;5.90;99.90;;;;;;5076608;28;20024;-62
2023/01/16 06:25:12;;;;;;;3.20;0.77;;;5.90;99.90;;;;;;5059409;28;20059;-61
2023/01/16 06:27:38;;;;;;;4.15;0.90;;;5.80;99.90;;;;;;5076524;28;20079;-62
2023/01/16 06:30:06;;;;;;;2.92;0.60;;;5.90;99.90;;;;;;5076501;28;20041;-61
2023/01/16 06:32:32;;;;;;;3.20;0.70;;;5.80;99.90;;;;;;5059101;28;20057;-61
2023/01/16 06:34:57;;;;;;;3.72;0.85;;;5.90;99.90;;;;;;5076496;28;20428;-61
2023/01/16 06:37:23;;;;;;;3.03;0.57;;;5.80;99.90;;;;;;5076400;28;20028;-62
2023/01/16 06:39:49;;;;;;;4.18;0.85;;;5.80;99.90;;;;;;5076747;28;20032;-61
2023/01/16 06:42:15;;;;;;;3.15;0.68;;;5.80;99.90;;;;;;5076689;28;20174;-61
2023/01/16 06:44:41;;;;;;;4.18;0.60;;;5.80;99.90;;;;;;5076600;28;20116;-61
2023/01/16 06:47:08;;;;;;;4.00;0.68;;;5.80;99.90;;;;;;5042755;28;20056;-61
2023/01/16 06:49:34;;;;;;;4.15;0.88;;;5.80;99.90;;;;;;5076644;28;20078;-62
2023/01/16 06:52:00;;;;;;;3.33;0.70;;;5.80;99.90;;;;;;5076312;28;20269;-62
2023/01/16 06:54:27;;;;;;;2.28;0.60;;;5.80;99.90;;;;;;5076370;28;20418;-61
2023/01/16 06:56:53;;;;;;;1.63;0.60;;;5.90;99.90;;;;;;5076594;28;20115;-61
2023/01/16 06:59:18;;;;;;;2.55;0.40;;;5.90;99.90;;;;;;5076354;28;20363;-62
2023/01/16 07:01:44;;;;;;;3.17;0.60;;;5.80;99.90;;;;;;5076253;28;20024;-62
2023/01/16 07:04:10;;;;;;;2.78;0.50;;;5.80;99.90;;;;;;5076198;28;20028;-61
2023/01/16 07:06:38;;;;;;;2.42;0.52;;;5.80;99.90;;;;;;5058776;28;20028;-61
2023/01/16 07:09:04;;;;;;;5.20;0.60;;;5.80;99.90;;;;;;5077969;28;20073;-60
2023/01/16 07:11:29;;;;;;;2.95;0.73;;;5.80;99.90;;;;;;5079880;28;20039;-60
2023/01/16 07:22:34;;;;;;;0.88;0.43;;;5.90;99.90;;;;;;5062332;28;20032;-60
2023/01/16 07:24:58;;;;;;;3.10;0.45;;;5.70;99.90;;;;;;5080211;28;20052;-61
2023/01/16 07:27:24;;;;;;;3.38;0.70;;;5.70;99.90;;;;;;5079757;28;20044;-62
2023/01/16 07:29:51;;;;;;;4.15;0.60;;;5.70;99.90;;;;;;5062037;28;20461;-62
2023/01/16 07:32:17;;;;;;;4.70;0.77;;;5.80;99.90;;;;;;5079451;28;20086;-63
2023/01/16 07:34:43;;;;;;;1.85;0.52;;;6.20;99.90;;;;;;5062116;28;20032;-62
2023/01/16 07:37:10;;;;;;;2.53;0.65;;;6.30;99.90;;;;;;5079374;28;20066;-61
2023/01/16 07:39:36;;;;;;;1.73;0.40;;;6.10;99.90;;;;;;5079372;28;20397;-60
2023/01/16 07:42:04;;;;;;;1.83;0.40;;;5.80;99.90;;;;;;5079251;28;20068;-59
2023/01/16 07:44:30;;;;;;;3.45;0.20;;;5.60;99.90;;;;;;5079245;28;20051;-60
2023/01/16 07:46:56;;;;;;;2.20;0.60;;;5.60;99.90;;;;;;5079129;28;20032;-59
2023/01/16 07:49:21;;;;;;;1.80;0.30;;;5.60;99.90;;;;;;5078920;28;20044;-60
2023/01/16 07:51:47;;;;;;;0.90;0.40;;;5.70;99.90;;;;;;5079564;28;20044;-59
2023/01/16 07:54:13;;;;;;;0.43;0.28;;;5.60;99.90;;;;;;5061833;28;20395;-59
2023/01/16 07:56:39;;;;;;;2.28;0.30;;;5.60;99.90;;;;;;5062095;28;20303;-60
2023/01/16 07:59:06;;;;;;;0.90;0.40;;;5.50;99.90;;;;;;5062183;28;20108;-58
2023/01/16 08:01:32;;;;;;;0.90;0.30;;;5.40;99.90;;;;;;5061592;28;20518;-62
2023/01/16 08:03:57;;;;;;;0.60;0.30;;;5.30;99.90;;;;;;5078867;28;20083;-60
2023/01/16 08:06:23;;;;;;;1.08;0.30;;;5.30;99.90;;;;;;5078858;28;20064;-61
2023/01/16 08:08:49;;;;;;;0.65;0.35;;;5.30;99.90;;;;;;5061017;28;20398;-60
2023/01/16 08:11:36;;;;;;;2.67;0.50;;;5.40;99.90;;;;;;5078658;28;20083;-60
2023/01/16 08:14:06;;;;;;;1.45;0.20;;;5.40;99.90;;;;;;5078415;28;20293;-62
2023/01/16 08:16:33;;;;;;;0.20;0.20;;;5.50;99.90;;;;;;5078562;28;20028;-60
2023/01/16 08:18:59;;;;;;;0.52;0.20;;;5.50;99.90;;;;;;5078419;28;20021;-60
2023/01/16 08:21:25;;;;;;;0.57;0.30;;;5.40;99.90;;;;;;5078128;28;20085;-59
2023/01/16 08:23:50;;;;;;;0.52;0.20;;;5.50;99.90;;;;;;5061308;28;20037;-59
2023/01/16 08:26:16;;;;;;;2.35;0.40;;;5.50;99.90;;;;;;5078514;28;20094;-60
2023/01/16 08:28:42;;;;;;;1.17;0.25;;;5.40;99.90;;;;;;5060896;28;20032;-59
2023/01/16 08:31:13;;;;;;;0.25;0.20;;;5.40;99.90;;;;;;5044246;28;20037;-60
2023/01/16 08:33:41;;;;;;;0.60;0.30;;;5.40;99.90;;;;;;5078445;28;20021;-61
2023/01/16 08:36:09;;;;;;;0.60;0.40;;;5.30;99.90;;;;;;5078283;28;20036;-59
2023/01/16 08:38:35;;;;;;;0.60;0.22;;;5.40;99.90;;;;;;5078205;28;20031;-60
2023/01/16 08:41:02;;;;;;;0.25;0.25;;;5.40;99.90;;;;;;5060803;28;20143;-62
2023/01/16 08:51:58;;;;;;;0.82;0.60;;;5.70;99.90;;;;;;5037994;28;20037;-62
2023/01/16 08:54:25;;;;;;;0.63;0.57;;;5.70;99.90;;;;;;5038015;28;20395;-62
2023/01/16 08:56:50;;;;;;;0.40;0.40;;;5.60;99.90;;;;;;5037932;28;20033;-62
2023/01/16 08:59:16;;;;;;;0.65;0.30;;;5.70;99.90;;;;;;5037608;28;20121;-61
2023/01/16 09:01:42;;;;;;;1.17;0.40;;;5.70;99.90;;;;;;5037798;28;20394;-62
2023/01/16 09:04:09;;;;;;;0.70;0.40;;;5.80;99.90;;;;;;5038287;28;20408;-62
2023/01/16 09:06:35;;;;;;;1.27;0.30;;;5.80;99.90;;;;;;5036879;28;20037;-62
2023/01/16 09:09:06;;;;;;;2.60;0.30;;;5.70;99.90;;;;;;5038229;28;20037;-62
2023/01/16 09:14:18;;;;;;;2.95;0.50;;;5.80;99.90;;;;;;5038078;28;20297;-62
2023/01/16 09:16:44;;;;;;;1.50;0.30;;;5.80;99.90;;;;;;5037433;28;20029;-62
2023/01/16 09:19:10;;;;;;;1.85;0.40;;;5.80;99.90;;;;;;5037507;28;20053;-63
2023/01/16 09:21:36;;;;;;;1.60;0.30;;;5.70;99.90;;;;;;5037446;28;20466;-62
2023/01/16 09:24:02;;;;;;;0.32;0.25;;;5.80;99.90;;;;;;5037410;28;20029;-61
2023/01/16 09:26:30;;;;;;;0.75;0.30;;;5.70;99.90;;;;;;5036597;28;20029;-62
2023/01/16 09:28:57;;;;;;;1.88;0.45;;;5.80;99.90;;;;;;5037282;28;20029;-62
2023/01/16 09:31:23;;;;;;;1.88;0.40;;;5.90;99.90;;;;;;5036479;28;20111;-62
2023/01/16 09:33:49;;;;;;;0.88;0.47;;;5.90;99.90;;;;;;5037033;28;20049;-63
2023/01/16 09:36:15;;;;;;;1.52;0.40;;;5.90;99.90;;;;;;5036510;28;20032;-62
2023/01/16 09:38:41;;;;;;;0.60;0.43;;;6.10;99.90;;;;;;5037098;28;20120;-62
2023/01/16 09:43:35;;;;;;;0.60;0.47;;;6.10;99.90;;;;;;5036150;28;20305;-62
2023/01/16 09:44:00;;;;;;;0.60;0.50;;;6.20;99.90;;;;;;5036190;28;20069;-63
2023/01/16 09:46:30;;;;;;;0.50;0.50;;;6.40;99.90;;;;;;5036312;28;20033;-61
2023/01/16 09:49:01;;;;;;;0.80;0.52;;;6.40;99.90;;;;;;5036171;28;20033;-61
2023/01/16 09:51:41;;;;;;;0.30;0.30;;;6.40;99.90;;;;;;5074295;28;20076;-60
2023/01/16 09:59:51;;;;;;;0.70;0.45;;;5.80;99.90;;;;;;5076811;28;19908;-60
2023/01/16 10:02:33;;;;;;;0.63;0.40;;;5.70;99.90;;;;;;5076918;28;20032;-60
2023/01/16 10:05:03;;;;;;;0.73;0.40;;;5.70;99.90;;;;;;5076702;28;20035;-60
2023/01/16 10:07:39;;;;;;;1.42;0.50;;;5.80;99.90;;;;;;5077027;28;20043;-60
2023/01/16 10:10:36;;;;;;;1.80;0.50;;;6.00;99.90;;;;;;5076610;28;20062;-60
2023/01/16 10:13:19;;;;;;;0.80;0.52;;;6.10;99.90;;;;;;5077136;28;20288;-60
2023/01/16 10:16:23;;;;;;;0.52;0.45;;;6.10;99.90;;;;;;5076547;28;20062;-60
2023/01/16 10:18:57;;;;;;;1.13;0.50;;;6.20;99.90;;;;;;5059236;28;20041;-60
2023/01/16 10:21:31;;;;;;;0.52;0.40;;;6.20;99.90;;;;;;5076483;28;20032;-60
2023/01/16 10:24:08;;;;;;;1.48;0.52;;;6.20;99.90;;;;;;5076517;28;20028;-60
2023/01/16 10:26:49;;;;;;;1.08;0.50;;;6.20;99.90;;;;;;5076404;28;20127;-61
2023/01/16 10:29:22;;;;;;;3.35;0.70;;;6.40;99.90;;;;;;5076496;28;20360;-61
2023/01/16 10:32:00;;;;;;;0.82;0.47;;;6.50;99.90;;;;;;5076879;28;20030;-61
2023/01/16 10:34:37;;;;;;;0.90;0.55;;;6.40;99.90;;;;;;5059164;28;20039;-61
2023/01/16 10:37:05;;;;;;;0.85;0.60;;;6.50;99.90;;;;;;5076438;28;20103;-61
2023/01/16 10:39:34;;;;;;;2.45;0.70;;;6.60;99.90;;;;;;5076399;28;20083;-61
2023/01/16 10:50:35;;;;;;;1.85;1.13;;;7.10;99.90;;;;;;5079841;28;20059;-60
2023/01/16 10:53:02;;;;;;;2.28;0.70;;;7.30;99.90;;;;;;5062751;28;20265;-60
2023/01/16 10:55:28;;;;;;;1.95;0.90;;;7.30;99.90;;;;;;5080255;28;20024;-60
2023/01/16 10:57:59;;;;;;;2.05;0.80;;;7.40;99.90;;;;;;5062637;28;20128;-61
2023/01/16 11:00:35;;;;;;;1.50;0.70;;;7.60;99.90;;;;;;5079905;28;20032;-60
2023/01/16 11:03:13;;;;;;;1.15;0.90;;;7.90;99.90;;;;;;5080003;28;20029;-60
2023/01/16 11:05:39;;;;;;;1.23;0.75;;;8.20;99.90;;;;;;5079677;28;20035;-61
2023/01/16 11:08:10;;;;;;;2.00;0.90;;;8.40;99.90;;;;;;5079741;28;20025;-60
2023/01/16 11:10:38;;;;;;;2.28;1.00;;;8.40;99.90;;;;;;5062280;28;20039;-61
2023/01/16 11:19:27;;;;;;;3.50;1.08;;;7.60;99.90;;;;;;5079633;28;20089;-59
2023/01/16 11:22:00;;;;;;;2.33;0.80;;;7.10;99.90;;;;;;5079541;28;20020;-59
2023/01/16 11:24:35;;;;;;;0.55;0.55;;;6.70;99.90;;;;;;5062189;28;20435;-61
2023/01/16 11:27:05;;;;;;;0.75;0.60;;;6.50;99.90;;;;;;5079921;28;20265;-59
2023/01/16 11:29:38;;;;;;;1.02;0.60;;;6.50;99.90;;;;;;5079321;28;20067;-60
2023/01/16 11:32:08;;;;;;;1.52;0.50;;;6.50;99.90;;;;;;5061882;28;20355;-60
2023/01/16 11:34:38;;;;;;;0.50;0.40;;;6.30;99.90;;;;;;5079303;28;20295;-60
2023/01/16 11:37:06;;;;;;;1.77;0.40;;;6.10;99.90;;;;;;5079243;28;20265;-60
2023/01/16 11:39:35;;;;;;;0.82;0.43;;;6.10;99.90;;;;;;5079920;28;20262;-60
2023/01/16 11:47:43;;;;;;;0.20;0.20;;;6.10;99.90;;;;;;5061779;28;20135;-60
2023/01/16 11:50:47;;;;;;;1.25;0.30;;;6.00;99.90;;;;;;5078862;28;20064;-59
2023/01/16 11:53:13;;;;;;;0.45;0.35;;;5.90;99.90;;;;;;5017860;28;20076;-61
2023/01/16 11:55:48;;;;;;;0.32;0.32;;;5.90;99.90;;;;;;5067146;28;20068;-61
2023/01/16 11:58:43;;;;;;;0.70;0.50;;;6.00;99.90;;;;;;5079015;28;20055;-60
2023/01/16 12:01:18;;;;;;;1.55;0.70;;;6.00;99.90;;;;;;5078930;28;20383;-61
2023/01/16 12:03:59;;;;;;;0.70;0.40;;;6.00;99.90;;;;;;5079000;28;20036;-62
2023/01/16 12:06:46;;;;;;;2.38;0.35;;;6.00;99.90;;;;;;5078885;28;20036;-61
2023/01/16 12:09:30;;;;;;;0.75;0.40;;;6.10;99.90;;;;;;5061369;28;20044;-61
2023/01/16 12:15:04;;;;;;;0.40;0.40;;;6.20;99.90;;;;;;5078493;28;20052;-61
2023/01/16 12:17:48;;;;;;;1.40;0.50;;;6.30;99.90;;;;;;5078509;28;20078;-62
2023/01/16 12:20:45;;;;;;;1.60;0.50;;;6.30;99.90;;;;;;5078390;28;20058;-61
2023/01/16 12:23:27;;;;;;;1.27;0.60;;;6.30;99.90;;;;;;5078716;28;20025;-60
2023/01/16 12:25:59;;;;;;;0.98;0.70;;;6.30;99.90;;;;;;5078346;28;20103;-61
2023/01/16 12:28:30;;;;;;;0.80;0.47;;;6.30;99.90;;;;;;5078533;28;20089;-61
2023/01/16 12:31:38;;;;;;;0.85;0.50;;;6.30;99.90;;;;;;5078207;28;20032;-61
2023/01/16 12:34:30;;;;;;;0.85;0.70;;;6.50;99.90;;;;;;5078235;28;20051;-60
2023/01/16 12:37:03;;;;;;;1.80;0.65;;;6.50;99.90;;;;;;5057914;28;20463;-60
2023/01/16 12:39:49;;;;;;;1.08;0.50;;;6.50;99.90;;;;;;5078137;28;20028;-60
2023/01/16 12:45:43;;;;;;;3.15;1.08;;;6.40;99.90;;;;;;5078008;28;20029;-60
2023/01/16 12:48:27;;;;;;;5.07;3.92;;;6.40;99.90;;;;;;5078014;28;20107;-60
2023/01/16 12:51:01;;;;;;;1.83;1.20;;;6.40;99.90;;;;;;5060379;28;20044;-60
2023/01/16 12:54:01;;;;;;;3.13;2.13;;;6.50;99.90;;;;;;5077946;28;20066;-60
2023/01/16 12:56:58;;;;;;;1.20;1.10;;;6.50;99.90;;;;;;5077789;28;20039;-61
2023/01/16 12:59:55;;;;;;;1.65;0.70;;;6.60;99.90;;;;;;5077924;28;20025;-59
2023/01/16 13:02:35;;;;;;;2.58;0.70;;;6.50;99.90;;;;;;5077974;28;20033;-61
2023/01/16 13:05:12;;;;;;;1.45;0.57;;;6.40;99.90;;;;;;5077660;28;20028;-61
2023/01/16 13:07:53;;;;;;;0.50;0.50;;;6.40;99.90;;;;;;5042795;28;20032;-62
2023/01/16 13:13:31;;;;;;;1.75;1.30;;;6.30;99.90;;;;;;5077692;28;20395;-60
2023/01/16 13:16:18;;;;;;;1.23;1.02;;;6.20;99.90;;;;;;5060196;28;20288;-59
2023/01/16 13:18:53;;;;;;;1.45;1.05;;;6.30;99.90;;;;;;5066936;28;20055;-59
2023/01/16 13:21:24;;;;;;;2.38;0.90;;;6.40;99.90;;;;;;5077631;28;20465;-61
2023/01/16 13:23:56;;;;;;;1.38;1.05;;;6.40;99.90;;;;;;5077399;28;20081;-61
2023/01/16 13:26:24;;;;;;;1.98;0.95;;;6.50;99.90;;;;;;5077394;28;20025;-61
2023/01/16 13:29:06;;;;;;;2.30;0.95;;;6.60;99.90;;;;;;5077100;28;20040;-60
2023/01/16 13:31:45;;;;;;;2.37;0.97;;;6.60;99.90;;;;;;5077272;28;20043;-61
2023/01/16 13:34:14;;;;;;;2.22;1.00;;;6.60;99.90;;;;;;5077293;28;20075;-61
2023/01/16 13:37:11;;;;;;;1.70;1.10;;;6.60;99.90;;;;;;5077102;28;20029;-61
2023/01/16 13:40:02;;;;;;;2.28;0.80;;;6.60;99.90;;;;;;5054032;28;20406;-61
2023/01/16 13:42:29;;;;;;;1.63;1.00;;;6.70;99.90;;;;;;5060086;28;20029;-59
2023/01/16 13:47:47;;;;;;;4.00;1.30;;;6.70;99.90;;;;;;5077089;28;20320;-61
2023/01/16 13:50:29;;;;;;;1.83;1.00;;;6.80;99.90;;;;;;5076670;28;20048;-61
2023/01/16 13:52:59;;;;;;;2.08;0.80;;;6.90;99.90;;;;;;5059547;28;20043;-61
2023/01/16 13:55:32;;;;;;;1.92;1.00;;;7.00;99.90;;;;;;5076971;28;20111;-61
2023/01/16 13:58:26;;;;;;;1.83;1.00;;;7.00;99.90;;;;;;5077274;28;20406;-61
2023/01/16 14:01:00;;;;;;;1.40;0.90;;;6.90;99.90;;;;;;5059545;28;20040;-61
2023/01/16 14:03:36;;;;;;;1.45;1.27;;;7.00;99.90;;;;;;5042726;28;20054;-61
2023/01/16 14:06:11;;;;;;;1.63;0.77;;;7.10;99.90;;;;;;5059355;28;20032;-61
2023/01/16 14:09:11;;;;;;;1.60;0.77;;;7.20;99.90;;;;;;5059420;28;20416;-61
2023/01/16 14:11:56;;;;;;;3.03;1.05;;;7.30;99.90;;;;;;5059118;28;20311;-60
2023/01/16 14:17:11;;;;;;;1.00;0.50;;;7.00;99.90;;;;;;5076608;28;20074;-63
2023/01/16 14:19:52;;;;;;;1.02;0.60;;;6.80;99.90;;;;;;5080725;28;20115;-61
2023/01/16 14:24:57;;;;;;;0.80;0.80;;;6.90;99.90;;;;;;5081140;28;20064;-62
2023/01/16 14:27:28;;;;;;;1.75;1.00;;;6.90;99.90;;;;;;5063748;28;20358;-62
2023/01/16 14:30:03;;;;;;;2.60;1.80;;;6.80;99.90;;;;;;5081180;28;20029;-61